createdAt,value
2018-04-27T00:01:44.445Z,8.24
2018-04-27T00:02:44.487Z,8.23
2018-04-27T00:04:37.479Z,8.19
2018-04-27T00:05:37.525Z,8.18
2018-04-27T00:07:30.512Z,8.20
2018-04-27T00:08:30.562Z,8.13
2018-04-27T00:10:23.554Z,8.18
2018-04-27T00:11:23.608Z,8.09
2018-04-27T00:13:16.602Z,8.23
2018-04-27T00:14:16.652Z,8.10
2018-04-27T00:16:09.631Z,8.12
2018-04-27T00:17:09.691Z,8.00
2018-04-27T00:19:02.682Z,8.01
2018-04-27T00:20:02.731Z,8.00
2018-04-27T00:21:55.716Z,7.88
2018-04-27T00:22:55.767Z,7.90
2018-04-27T00:24:48.748Z,7.82
2018-04-27T00:25:48.808Z,7.73
2018-04-27T00:27:41.796Z,7.70
2018-04-27T00:28:41.848Z,7.72
2018-04-27T00:30:34.829Z,7.75
2018-04-27T00:31:34.886Z,7.70
2018-04-27T00:33:27.877Z,7.63
2018-04-27T00:34:27.988Z,7.73
2018-04-27T00:36:20.906Z,7.80
2018-04-27T00:37:20.964Z,7.76
2018-04-27T00:39:13.948Z,7.85
2018-04-27T00:40:14.000Z,7.85
2018-04-27T00:42:07.041Z,7.79
2018-04-27T00:43:07.040Z,7.87
2018-04-27T00:45:00.025Z,7.76
2018-04-27T00:46:00.086Z,7.82
2018-04-27T00:47:53.077Z,7.75
2018-04-27T00:48:53.125Z,7.77
2018-04-27T00:50:46.112Z,7.56
2018-04-27T00:51:46.168Z,7.51
2018-04-27T00:53:39.154Z,7.54
2018-04-27T00:54:39.203Z,7.57
2018-04-27T00:56:32.186Z,7.45
2018-04-27T00:57:32.243Z,7.47
2018-04-27T00:59:25.230Z,7.36
2018-04-27T01:00:25.282Z,7.39
2018-04-27T01:02:18.276Z,7.43
2018-04-27T01:03:18.333Z,7.33
2018-04-27T01:05:11.306Z,7.31
2018-04-27T01:06:11.367Z,7.31
2018-04-27T01:08:04.358Z,7.40
2018-04-27T01:09:04.409Z,7.40
2018-04-27T01:10:57.387Z,7.40
2018-04-27T01:11:57.446Z,7.40
2018-04-27T01:13:50.432Z,7.48
2018-04-27T01:14:50.484Z,7.42
2018-04-27T01:16:43.467Z,7.28
2018-04-27T01:17:43.534Z,7.40
2018-04-27T01:19:36.518Z,7.47
2018-04-27T01:20:36.670Z,7.48
2018-04-27T01:22:29.556Z,7.40
2018-04-27T01:23:29.608Z,7.29
2018-04-27T01:25:22.587Z,7.29
2018-04-27T01:26:22.647Z,7.25
2018-04-27T01:28:15.631Z,7.17
2018-04-27T01:29:15.681Z,7.11
2018-04-27T01:31:08.661Z,7.24
2018-04-27T01:32:08.719Z,7.29
2018-04-27T01:34:01.706Z,7.24
2018-04-27T01:35:01.758Z,7.25
2018-04-27T01:36:54.740Z,7.29
2018-04-27T01:37:54.799Z,7.24
2018-04-27T01:39:47.783Z,7.32
2018-04-27T01:40:47.834Z,7.28
2018-04-27T01:42:40.826Z,7.24
2018-04-27T01:43:40.876Z,7.14
2018-04-27T01:45:33.854Z,7.15
2018-04-27T01:46:33.912Z,7.15
2018-04-27T01:48:26.898Z,7.05
2018-04-27T01:49:26.951Z,7.00
2018-04-27T01:51:19.935Z,6.93
2018-04-27T01:52:19.995Z,6.93
2018-04-27T01:54:12.979Z,6.93
2018-04-27T01:55:13.032Z,6.93
2018-04-27T01:57:06.013Z,7.03
2018-04-27T01:58:06.072Z,7.03
2018-04-27T01:59:59.056Z,7.03
2018-04-27T02:00:59.107Z,7.03
2018-04-27T02:02:52.098Z,6.87
2018-04-27T02:03:52.153Z,6.81
2018-04-27T02:05:45.134Z,6.85
2018-04-27T02:06:45.186Z,6.84
2018-04-27T02:08:38.177Z,6.82
2018-04-27T02:09:38.225Z,6.84
2018-04-27T02:11:31.215Z,6.82
2018-04-27T02:12:31.268Z,6.77
2018-04-27T02:14:24.259Z,6.78
2018-04-27T02:15:24.317Z,6.78
2018-04-27T02:17:17.286Z,6.69
2018-04-27T02:18:17.343Z,6.75
2018-04-27T02:20:10.329Z,6.64
2018-04-27T02:21:10.379Z,6.63
2018-04-27T02:23:03.371Z,6.63
2018-04-27T02:24:03.418Z,6.66
2018-04-27T02:25:56.400Z,6.70
2018-04-27T02:26:56.455Z,6.79
2018-04-27T02:28:49.438Z,6.77
2018-04-27T02:29:49.490Z,6.82
2018-04-27T02:31:42.475Z,6.77
2018-04-27T02:32:42.531Z,6.60
2018-04-27T02:34:35.514Z,6.63
2018-04-27T02:35:35.567Z,6.63
2018-04-27T02:37:28.547Z,6.60
2018-04-27T02:38:28.608Z,6.59
2018-04-27T02:40:21.591Z,6.51
2018-04-27T02:41:21.640Z,6.59
2018-04-27T02:43:14.632Z,6.57
2018-04-27T02:44:14.675Z,6.62
2018-04-27T02:46:07.654Z,6.67
2018-04-27T02:47:07.712Z,6.62
2018-04-27T02:49:00.696Z,6.57
2018-04-27T02:50:00.748Z,6.57
2018-04-27T02:51:53.726Z,6.51
2018-04-27T02:52:53.784Z,6.54
2018-04-27T02:54:46.770Z,6.60
2018-04-27T02:55:46.946Z,6.51
2018-04-27T02:57:39.807Z,6.51
2018-04-27T02:58:39.862Z,6.45
2018-04-27T03:00:32.847Z,6.51
2018-04-27T03:01:32.893Z,6.45
2018-04-27T03:03:25.877Z,6.39
2018-04-27T03:04:25.928Z,6.41
2018-04-27T03:06:18.915Z,6.36
2018-04-27T03:07:18.973Z,6.33
2018-04-27T03:09:11.959Z,6.36
2018-04-27T03:10:12.013Z,6.31
2018-04-27T03:12:04.994Z,6.49
2018-04-27T03:13:05.052Z,6.54
2018-04-27T03:14:58.036Z,6.59
2018-04-27T03:15:58.089Z,6.56
2018-04-27T03:17:51.067Z,6.62
2018-04-27T03:18:51.126Z,6.56
2018-04-27T03:20:44.111Z,6.48
2018-04-27T03:21:44.165Z,6.57
2018-04-27T03:23:37.161Z,6.52
2018-04-27T03:24:37.202Z,6.59
2018-04-27T03:26:30.186Z,6.49
2018-04-27T03:27:30.238Z,6.46
2018-04-27T03:29:23.221Z,6.41
2018-04-27T03:30:23.275Z,6.36
2018-04-27T03:32:16.253Z,6.54
2018-04-27T03:33:16.308Z,6.62
2018-04-27T03:35:09.295Z,6.63
2018-04-27T03:36:09.347Z,6.59
2018-04-27T03:38:02.338Z,6.66
2018-04-27T03:39:02.397Z,6.63
2018-04-27T03:40:55.382Z,6.59
2018-04-27T03:41:55.435Z,6.57
2018-04-27T03:43:48.420Z,6.48
2018-04-27T03:44:48.472Z,6.45
2018-04-27T03:46:41.450Z,6.48
2018-04-27T03:47:41.508Z,6.52
2018-04-27T03:49:34.494Z,6.46
2018-04-27T03:50:34.545Z,6.45
2018-04-27T03:52:27.527Z,6.48
2018-04-27T03:53:27.582Z,6.39
2018-04-27T03:55:20.567Z,6.46
2018-04-27T03:56:20.619Z,6.36
2018-04-27T03:58:13.600Z,6.28
2018-04-27T03:59:13.657Z,6.31
2018-04-27T04:01:06.694Z,6.24
2018-04-27T04:02:06.694Z,6.30
2018-04-27T04:03:59.679Z,6.27
2018-04-27T04:04:59.730Z,6.27
2018-04-27T04:06:52.712Z,6.19
2018-04-27T04:07:52.768Z,6.20
2018-04-27T04:09:45.753Z,6.26
2018-04-27T04:10:45.804Z,6.26
2018-04-27T04:12:38.811Z,6.22
2018-04-27T04:13:38.864Z,6.14
2018-04-27T04:15:31.829Z,6.07
2018-04-27T04:16:31.879Z,6.20
2018-04-27T04:18:24.860Z,6.26
2018-04-27T04:19:24.917Z,6.28
2018-04-27T04:21:17.902Z,6.17
2018-04-27T04:22:17.955Z,6.14
2018-04-27T04:24:10.943Z,6.01
2018-04-27T04:25:10.991Z,6.09
2018-04-27T04:27:03.972Z,6.07
2018-04-27T04:28:04.032Z,6.05
2018-04-27T04:29:57.011Z,6.14
2018-04-27T04:30:57.063Z,6.19
2018-04-27T04:32:50.042Z,6.05
2018-04-27T04:33:50.099Z,6.05
2018-04-27T04:35:43.130Z,6.05
2018-04-27T04:36:43.260Z,5.91
2018-04-27T04:38:36.119Z,5.90
2018-04-27T04:39:36.178Z,5.84
2018-04-27T04:41:29.161Z,5.84
2018-04-27T04:42:29.212Z,5.84
2018-04-27T04:44:22.197Z,5.91
2018-04-27T04:45:22.247Z,5.98
2018-04-27T04:47:15.229Z,5.87
2018-04-27T04:48:15.285Z,5.84
2018-04-27T04:50:08.270Z,5.90
2018-04-27T04:51:08.323Z,5.98
2018-04-27T04:53:01.311Z,6.04
2018-04-27T04:54:01.360Z,6.11
2018-04-27T04:55:54.356Z,6.09
2018-04-27T04:56:54.397Z,6.22
2018-04-27T04:58:47.385Z,6.27
2018-04-27T04:59:47.443Z,6.28
2018-04-27T05:01:40.431Z,6.36
2018-04-27T05:02:40.485Z,6.35
2018-04-27T05:04:33.469Z,6.48
2018-04-27T05:05:33.521Z,6.48
2018-04-27T05:07:26.500Z,6.48
2018-04-27T05:08:26.558Z,6.56
2018-04-27T05:10:19.541Z,6.62
2018-04-27T05:11:19.594Z,6.69
2018-04-27T05:13:12.608Z,6.70
2018-04-27T05:14:12.663Z,6.70
2018-04-27T05:16:05.656Z,6.70
2018-04-27T05:17:05.707Z,6.67
2018-04-27T05:18:58.684Z,6.72
2018-04-27T05:19:58.745Z,6.75
2018-04-27T05:21:51.743Z,6.75
2018-04-27T05:22:51.779Z,6.74
2018-04-27T05:24:44.767Z,6.79
2018-04-27T05:25:44.815Z,6.79
2018-04-27T05:27:37.795Z,6.85
2018-04-27T05:28:37.853Z,6.88
2018-04-27T05:30:30.844Z,6.92
2018-04-27T05:31:30.889Z,6.92
2018-04-27T05:33:23.869Z,6.95
2018-04-27T05:34:23.925Z,6.92
2018-04-27T05:36:16.917Z,7.02
2018-04-27T05:37:16.962Z,7.00
2018-04-27T05:39:09.945Z,7.14
2018-04-27T05:40:10.002Z,7.20
2018-04-27T05:42:03.039Z,7.25
2018-04-27T05:43:03.038Z,7.38
2018-04-27T05:44:56.024Z,7.60
2018-04-27T05:45:56.076Z,7.69
2018-04-27T05:47:49.056Z,7.85
2018-04-27T05:48:49.115Z,7.95
2018-04-27T05:50:42.147Z,8.08
2018-04-27T05:51:42.195Z,8.08
2018-04-27T05:53:35.692Z,8.31
2018-04-27T05:54:35.743Z,8.33
2018-04-27T05:56:28.728Z,8.36
2018-04-27T05:57:28.781Z,8.42
2018-04-27T05:59:21.762Z,8.55
2018-04-27T06:00:21.821Z,8.76
2018-04-27T06:02:14.807Z,8.89
2018-04-27T06:03:14.859Z,9.06
2018-04-27T06:05:07.855Z,9.31
2018-04-27T06:06:07.906Z,9.55
2018-04-27T06:08:00.887Z,10.01
2018-04-27T06:09:00.945Z,10.26
2018-04-27T06:10:53.936Z,11.19
2018-04-27T06:11:53.985Z,11.54
2018-04-27T06:13:46.967Z,12.67
2018-04-27T06:14:47.027Z,13.25
2018-04-27T06:16:40.017Z,13.95
2018-04-27T06:17:40.066Z,14.77
2018-04-27T06:19:33.047Z,15.55
2018-04-27T06:20:33.107Z,16.20
2018-04-27T06:22:26.099Z,17.11
2018-04-27T06:23:26.152Z,17.42
2018-04-27T06:25:19.145Z,17.16
2018-04-27T06:26:19.198Z,16.75
2018-04-27T06:28:12.185Z,16.33
2018-04-27T06:29:12.247Z,16.35
2018-04-27T06:31:05.237Z,15.79
2018-04-27T06:32:05.296Z,15.72
2018-04-27T06:33:58.290Z,16.36
2018-04-27T06:34:58.353Z,16.79
2018-04-27T06:36:51.349Z,17.27
2018-04-27T06:37:51.405Z,17.71
2018-04-27T06:39:44.394Z,17.86
2018-04-27T06:40:44.474Z,17.67
2018-04-27T06:42:37.463Z,17.65
2018-04-27T06:43:37.530Z,18.40
2018-04-27T06:45:30.519Z,18.40
2018-04-27T06:46:30.580Z,18.88
2018-04-27T06:48:23.579Z,18.77
2018-04-27T06:49:23.637Z,19.11
2018-04-27T06:51:16.639Z,19.31
2018-04-27T06:52:16.697Z,19.27
2018-04-27T06:54:09.701Z,19.21
2018-04-27T06:55:09.766Z,19.41
2018-04-27T06:57:02.768Z,18.99
2018-04-27T06:58:02.825Z,19.71
2018-04-27T06:59:55.827Z,20.31
2018-04-27T07:00:55.893Z,20.74
2018-04-27T07:02:48.905Z,20.87
2018-04-27T07:03:48.959Z,20.50
2018-04-27T07:05:41.967Z,20.66
2018-04-27T07:06:42.029Z,20.67
2018-04-27T07:08:35.026Z,21.42
2018-04-27T07:09:35.096Z,21.51
2018-04-27T07:11:28.109Z,20.19
2018-04-27T07:12:28.167Z,19.88
2018-04-27T07:14:21.167Z,19.79
2018-04-27T07:15:21.236Z,20.09
2018-04-27T07:17:14.243Z,20.25
2018-04-27T07:18:14.302Z,19.89
2018-04-27T07:20:07.308Z,21.03
2018-04-27T07:21:07.373Z,21.48
2018-04-27T07:23:00.384Z,21.91
2018-04-27T07:24:00.444Z,21.98
2018-04-27T07:25:53.511Z,21.88
2018-04-27T07:26:53.513Z,21.39
2018-04-27T07:28:46.517Z,22.68
2018-04-27T07:29:46.582Z,22.78
2018-04-27T07:31:39.592Z,23.62
2018-04-27T07:32:39.656Z,23.69
2018-04-27T07:34:32.663Z,24.11
2018-04-27T07:35:32.731Z,24.13
2018-04-27T07:37:25.740Z,23.84
2018-04-27T07:38:25.802Z,23.80
2018-04-27T07:40:18.815Z,24.21
2018-04-27T07:41:18.890Z,24.80
2018-04-27T07:43:11.902Z,25.65
2018-04-27T07:44:11.969Z,25.95
2018-04-27T07:46:04.981Z,24.68
2018-04-27T07:47:05.046Z,24.16
2018-04-27T07:48:58.052Z,24.33
2018-04-27T07:49:58.120Z,24.89
2018-04-27T07:51:51.140Z,24.23
2018-04-27T07:52:51.207Z,24.54
2018-04-27T07:54:44.217Z,25.23
2018-04-27T07:55:44.285Z,24.93
2018-04-27T07:57:37.300Z,24.99
2018-04-27T07:58:37.367Z,24.92
2018-04-27T08:00:30.378Z,24.93
2018-04-27T08:01:30.452Z,24.69
2018-04-27T08:03:23.467Z,23.92
2018-04-27T08:04:23.532Z,23.92
2018-04-27T08:06:16.564Z,23.46
2018-04-27T08:07:16.663Z,23.43
2018-04-27T08:09:09.640Z,23.87
2018-04-27T08:10:09.720Z,22.81
2018-04-27T08:12:02.726Z,20.70
2018-04-27T08:13:02.792Z,20.65
2018-04-27T08:14:55.800Z,19.86
2018-04-27T08:15:55.869Z,19.85
2018-04-27T08:17:48.890Z,20.03
2018-04-27T08:18:48.956Z,20.40
2018-04-27T08:20:41.961Z,20.29
2018-04-27T08:21:42.032Z,20.26
2018-04-27T08:23:35.038Z,20.65
2018-04-27T08:24:35.162Z,20.67
2018-04-27T08:26:28.112Z,20.31
2018-04-27T08:27:28.177Z,20.16
2018-04-27T08:29:21.197Z,19.37
2018-04-27T08:30:21.262Z,19.54
2018-04-27T08:32:14.262Z,19.54
2018-04-27T08:33:14.323Z,19.34
2018-04-27T08:35:07.329Z,18.99
2018-04-27T08:36:07.425Z,18.78
2018-04-27T08:38:00.404Z,18.20
2018-04-27T08:39:00.476Z,18.16
2018-04-27T08:40:53.471Z,17.80
2018-04-27T08:41:53.538Z,17.67
2018-04-27T08:43:46.616Z,17.57
2018-04-27T08:44:46.601Z,17.64
2018-04-27T08:46:39.605Z,17.51
2018-04-27T08:47:39.666Z,17.22
2018-04-27T08:49:32.664Z,17.14
2018-04-27T08:50:32.827Z,17.08
2018-04-27T08:52:25.733Z,17.04
2018-04-27T08:53:25.796Z,16.86
2018-04-27T08:55:18.793Z,16.84
2018-04-27T08:56:18.855Z,17.02
2018-04-27T08:58:11.859Z,17.16
2018-04-27T08:59:11.917Z,17.02
2018-04-27T09:01:04.918Z,17.02
2018-04-27T09:02:04.985Z,17.16
2018-04-27T09:03:57.995Z,17.24
2018-04-27T09:04:58.059Z,17.05
2018-04-27T09:06:51.056Z,17.60
2018-04-27T09:07:51.116Z,17.82
2018-04-27T09:09:44.111Z,17.65
2018-04-27T09:10:44.177Z,17.65
2018-04-27T09:12:37.182Z,17.97
2018-04-27T09:13:37.239Z,18.33
2018-04-27T09:15:30.241Z,18.53
2018-04-27T09:16:30.301Z,18.43
2018-04-27T09:18:23.313Z,18.31
2018-04-27T09:19:23.376Z,18.28
2018-04-27T09:21:16.370Z,18.35
2018-04-27T09:22:16.437Z,18.20
2018-04-27T09:25:09.496Z,18.11
2018-04-27T09:27:02.497Z,18.11
2018-04-27T09:28:02.559Z,18.07
2018-04-27T09:29:55.553Z,18.08
2018-04-27T09:30:55.620Z,18.07
2018-04-27T09:32:48.623Z,18.31
2018-04-27T09:33:48.681Z,18.43
2018-04-27T09:35:41.678Z,17.94
2018-04-27T09:36:41.745Z,18.15
2018-04-27T09:38:34.747Z,18.07
2018-04-27T09:39:34.811Z,18.07
2018-04-27T09:41:27.804Z,18.34
2018-04-27T09:42:27.872Z,18.44
2018-04-27T09:44:20.882Z,18.11
2018-04-27T09:45:20.934Z,18.05
2018-04-27T09:47:13.931Z,18.49
2018-04-27T09:48:13.990Z,18.43
2018-04-27T09:50:06.986Z,18.52
2018-04-27T09:51:07.048Z,18.20
2018-04-27T09:53:00.564Z,17.64
2018-04-27T09:54:00.619Z,17.86
2018-04-27T09:55:53.625Z,17.71
2018-04-27T09:56:53.688Z,17.87
2018-04-27T09:58:46.690Z,18.15
2018-04-27T09:59:46.748Z,18.16
2018-04-27T10:01:39.742Z,18.34
2018-04-27T10:02:39.808Z,18.40
2018-04-27T10:04:32.809Z,18.45
2018-04-27T10:05:32.867Z,18.35
2018-04-27T10:07:25.867Z,18.73
2018-04-27T10:08:25.927Z,18.80
2018-04-27T10:10:18.924Z,19.02
2018-04-27T10:11:18.988Z,18.77
2018-04-27T10:13:11.996Z,18.86
2018-04-27T10:14:12.053Z,18.99
2018-04-27T10:16:05.047Z,18.71
2018-04-27T10:17:05.112Z,18.74
2018-04-27T10:18:58.115Z,18.71
2018-04-27T10:19:58.174Z,18.66
2018-04-27T10:21:51.173Z,18.37
2018-04-27T10:22:51.240Z,18.19
2018-04-27T10:24:44.242Z,18.43
2018-04-27T10:25:44.300Z,18.56
2018-04-27T10:27:37.302Z,18.56
2018-04-27T10:28:37.362Z,18.45
2018-04-27T10:30:30.354Z,18.73
2018-04-27T10:31:30.420Z,18.90
2018-04-27T10:33:23.421Z,18.22
2018-04-27T10:34:23.480Z,18.40
2018-04-27T10:36:16.478Z,18.31
2018-04-27T10:37:16.540Z,18.29
2018-04-27T10:39:09.544Z,18.33
2018-04-27T10:40:09.602Z,18.43
2018-04-27T10:42:02.595Z,18.04
2018-04-27T10:43:02.746Z,17.98
2018-04-27T10:44:55.660Z,17.89
2018-04-27T10:45:55.720Z,18.04
2018-04-27T10:47:48.727Z,17.94
2018-04-27T10:48:48.778Z,17.67
2018-04-27T10:50:41.774Z,17.51
2018-04-27T10:51:41.840Z,17.51
2018-04-27T10:53:35.350Z,17.85
2018-04-27T10:54:35.406Z,18.01
2018-04-27T10:56:28.399Z,18.18
2018-04-27T10:57:28.464Z,18.22
2018-04-27T10:59:21.465Z,18.33
2018-04-27T11:00:21.530Z,18.45
2018-04-27T11:02:14.522Z,18.56
2018-04-27T11:03:14.631Z,18.45
2018-04-27T11:05:07.585Z,18.52
2018-04-27T11:06:07.645Z,18.43
2018-04-27T11:08:00.648Z,18.37
2018-04-27T11:09:00.704Z,18.29
2018-04-27T11:10:53.712Z,18.41
2018-04-27T11:11:54.124Z,18.59
2018-04-27T11:13:46.763Z,18.83
2018-04-27T11:14:46.822Z,18.86
2018-04-27T11:16:39.816Z,18.83
2018-04-27T11:17:39.884Z,18.83
2018-04-27T11:19:32.884Z,18.60
2018-04-27T11:20:32.940Z,18.53
2018-04-27T11:22:25.944Z,18.74
2018-04-27T11:23:26.007Z,18.88
2018-04-27T11:25:19.014Z,18.77
2018-04-27T11:26:19.072Z,18.98
2018-04-27T11:28:12.073Z,18.99
2018-04-27T11:29:12.131Z,19.11
2018-04-27T11:31:05.126Z,18.49
2018-04-27T11:32:05.191Z,18.40
2018-04-27T11:33:58.194Z,18.62
2018-04-27T11:34:58.250Z,18.81
2018-04-27T11:36:51.257Z,18.71
2018-04-27T11:37:51.437Z,18.78
2018-04-27T11:39:44.317Z,18.92
2018-04-27T11:40:44.374Z,18.96
2018-04-27T11:42:37.378Z,19.24
2018-04-27T11:43:37.449Z,19.44
2018-04-27T11:45:30.437Z,19.52
2018-04-27T11:46:30.496Z,19.47
2018-04-27T11:48:23.497Z,19.16
2018-04-27T11:49:23.554Z,19.16
2018-04-27T11:51:16.549Z,19.24
2018-04-27T11:52:16.615Z,19.31
2018-04-27T11:54:09.615Z,19.30
2018-04-27T11:55:09.674Z,19.12
2018-04-27T11:57:02.681Z,19.12
2018-04-27T11:58:02.740Z,18.88
2018-04-27T11:59:55.742Z,18.63
2018-04-27T12:00:55.801Z,18.49
2018-04-27T12:02:48.797Z,18.38
2018-04-27T12:03:48.866Z,18.35
2018-04-27T12:05:41.859Z,18.38
2018-04-27T12:06:41.920Z,18.33
2018-04-27T12:08:34.920Z,18.56
2018-04-27T12:09:34.978Z,18.65
2018-04-27T12:11:27.971Z,18.26
2018-04-27T12:12:28.036Z,18.15
2018-04-27T12:14:21.038Z,18.28
2018-04-27T12:15:21.106Z,18.58
2018-04-27T12:17:14.090Z,18.81
2018-04-27T12:18:14.154Z,18.80
2018-04-27T12:20:07.187Z,18.71
2018-04-27T12:21:07.211Z,18.93
2018-04-27T12:23:00.212Z,18.96
2018-04-27T12:24:00.272Z,19.08
2018-04-27T12:25:53.279Z,19.31
2018-04-27T12:26:53.339Z,19.36
2018-04-27T12:28:46.338Z,19.59
2018-04-27T12:29:46.398Z,19.58
2018-04-27T12:31:39.500Z,19.49
2018-04-27T12:32:39.458Z,19.39
2018-04-27T12:34:32.464Z,19.18
2018-04-27T12:35:32.519Z,18.99
2018-04-27T12:37:25.505Z,18.55
2018-04-27T12:38:25.574Z,18.34
2018-04-27T12:40:18.588Z,18.26
2018-04-27T12:41:18.635Z,18.37
2018-04-27T12:43:11.627Z,18.15
2018-04-27T12:44:11.703Z,18.15
2018-04-27T12:46:05.204Z,18.31
2018-04-27T12:47:05.259Z,18.33
2018-04-27T12:48:58.268Z,18.31
2018-04-27T12:49:58.323Z,18.25
2018-04-27T12:51:51.317Z,18.40
2018-04-27T12:52:51.381Z,18.56
2018-04-27T12:54:44.380Z,18.88
2018-04-27T12:55:44.439Z,18.88
2018-04-27T12:57:37.436Z,18.77
2018-04-27T12:58:37.498Z,18.81
2018-04-27T13:00:30.521Z,19.00
2018-04-27T13:01:30.565Z,19.09
2018-04-27T13:03:23.590Z,19.41
2018-04-27T13:04:23.657Z,19.34
2018-04-27T13:06:16.659Z,18.86
2018-04-27T13:07:16.714Z,18.80
2018-04-27T13:09:09.715Z,18.86
2018-04-27T13:10:09.773Z,18.90
2018-04-27T13:12:02.767Z,18.70
2018-04-27T13:13:02.832Z,18.80
2018-04-27T13:14:55.843Z,18.96
2018-04-27T13:15:55.897Z,18.99
2018-04-27T13:17:48.900Z,19.02
2018-04-27T13:18:48.965Z,19.21
2018-04-27T13:20:41.965Z,19.22
2018-04-27T13:21:42.026Z,19.34
2018-04-27T13:23:35.017Z,19.45
2018-04-27T13:24:35.086Z,19.41
2018-04-27T13:26:28.095Z,19.30
2018-04-27T13:27:28.140Z,19.02
2018-04-27T13:29:21.143Z,18.63
2018-04-27T13:30:21.203Z,18.62
2018-04-27T13:32:14.197Z,18.83
2018-04-27T13:33:14.260Z,18.81
2018-04-27T13:35:07.264Z,18.88
2018-04-27T13:36:07.319Z,18.96
2018-04-27T13:38:00.321Z,18.62
2018-04-27T13:39:00.389Z,18.83
2018-04-27T13:40:53.382Z,18.66
2018-04-27T13:41:53.440Z,18.68
2018-04-27T13:43:46.437Z,18.78
2018-04-27T13:44:46.499Z,18.80
2018-04-27T13:46:39.503Z,18.65
2018-04-27T13:47:39.565Z,18.62
2018-04-27T13:49:32.561Z,18.75
2018-04-27T13:50:32.616Z,18.74
2018-04-27T13:52:25.610Z,18.81
2018-04-27T13:53:25.844Z,18.80
2018-04-27T13:55:18.677Z,18.65
2018-04-27T13:56:18.737Z,18.56
2018-04-27T13:58:11.727Z,18.35
2018-04-27T13:59:11.793Z,18.19
2018-04-27T14:01:04.792Z,18.23
2018-04-27T14:02:04.869Z,18.53
2018-04-27T14:03:57.850Z,18.70
2018-04-27T14:04:57.910Z,18.83
2018-04-27T14:06:50.910Z,18.77
2018-04-27T14:07:50.968Z,18.90
2018-04-27T14:09:43.974Z,18.88
2018-04-27T14:10:44.029Z,18.78
2018-04-27T14:12:37.021Z,18.83
2018-04-27T14:13:37.084Z,18.80
2018-04-27T14:15:30.089Z,18.59
2018-04-27T14:16:30.139Z,18.68
2018-04-27T14:18:23.132Z,18.70
2018-04-27T14:19:23.198Z,18.56
2018-04-27T14:21:37.222Z,18.40
2018-04-27T14:22:16.262Z,18.41
2018-04-27T14:24:09.259Z,18.62
2018-04-27T14:25:09.332Z,18.86
2018-04-27T14:27:02.326Z,19.09
2018-04-27T14:28:02.381Z,19.19
2018-04-27T14:29:55.387Z,19.33
2018-04-27T14:30:55.439Z,19.29
2018-04-27T14:32:48.439Z,18.93
2018-04-27T14:33:48.548Z,18.89
2018-04-27T14:35:41.517Z,18.80
2018-04-27T14:36:41.560Z,18.78
2018-04-27T14:38:34.550Z,18.70
2018-04-27T14:39:34.626Z,18.55
2018-04-27T14:41:27.615Z,18.70
2018-04-27T14:42:27.678Z,18.92
2018-04-27T14:44:20.670Z,18.84
2018-04-27T14:45:20.730Z,18.84
2018-04-27T14:47:13.729Z,18.83
2018-04-27T14:48:13.789Z,18.81
2018-04-27T14:50:06.786Z,18.84
2018-04-27T14:51:06.851Z,18.78
2018-04-27T14:52:59.845Z,18.84
2018-04-27T14:53:59.908Z,18.84
2018-04-27T14:55:53.415Z,19.07
2018-04-27T14:56:53.483Z,18.83
2018-04-27T14:58:46.470Z,18.63
2018-04-27T14:59:46.540Z,18.56
2018-04-27T15:01:39.552Z,18.83
2018-04-27T15:02:39.595Z,18.80
2018-04-27T15:04:32.599Z,18.78
2018-04-27T15:05:32.661Z,18.78
2018-04-27T15:07:25.662Z,18.77
2018-04-27T15:08:25.741Z,18.70
2018-04-27T15:10:18.725Z,18.68
2018-04-27T15:11:18.780Z,18.63
2018-04-27T15:13:11.780Z,18.58
2018-04-27T15:14:11.844Z,18.53
2018-04-27T15:16:04.843Z,18.41
2018-04-27T15:17:04.905Z,18.38
2018-04-27T15:18:57.897Z,18.26
2018-04-27T15:19:57.962Z,18.20
2018-04-27T15:21:50.960Z,18.13
2018-04-27T15:22:51.020Z,18.10
2018-04-27T15:24:44.010Z,18.05
2018-04-27T15:25:44.075Z,17.98
2018-04-27T15:27:37.075Z,17.92
2018-04-27T15:28:37.130Z,17.82
2018-04-27T15:30:30.133Z,17.87
2018-04-27T15:31:30.191Z,17.94
2018-04-27T15:33:23.184Z,18.03
2018-04-27T15:34:23.249Z,18.07
2018-04-27T15:36:16.255Z,18.07
2018-04-27T15:37:16.313Z,18.13
2018-04-27T15:39:09.309Z,18.15
2018-04-27T15:40:09.370Z,17.98
2018-04-27T15:42:02.369Z,18.08
2018-04-27T15:43:02.427Z,18.04
2018-04-27T15:44:55.430Z,18.18
2018-04-27T15:45:55.483Z,18.07
2018-04-27T15:47:48.488Z,18.31
2018-04-27T15:48:48.545Z,18.35
2018-04-27T15:50:41.545Z,18.34
2018-04-27T15:51:41.601Z,18.43
2018-04-27T15:53:34.604Z,18.34
2018-04-27T15:54:34.666Z,18.44
2018-04-27T15:56:28.168Z,18.59
2018-04-27T15:57:28.274Z,18.68
2018-04-27T15:59:21.227Z,18.70
2018-04-27T16:00:21.290Z,18.75
2018-04-27T16:02:14.295Z,18.68
2018-04-27T16:03:14.353Z,18.63
2018-04-27T16:05:07.350Z,18.58
2018-04-27T16:06:07.412Z,18.53
2018-04-27T16:08:00.415Z,18.73
2018-04-27T16:09:00.468Z,18.74
2018-04-27T16:10:53.467Z,18.86
2018-04-27T16:11:53.525Z,18.88
2018-04-27T16:13:46.518Z,18.83
2018-04-27T16:14:46.590Z,18.73
2018-04-27T16:16:39.580Z,18.78
2018-04-27T16:17:39.638Z,18.78
2018-04-27T16:19:32.634Z,18.77
2018-04-27T16:20:32.695Z,18.77
2018-04-27T16:22:25.695Z,18.58
2018-04-27T16:23:25.754Z,18.44
2018-04-27T16:25:18.748Z,18.44
2018-04-27T16:26:18.809Z,18.55
2018-04-27T16:28:11.807Z,18.58
2018-04-27T16:29:11.870Z,18.63
2018-04-27T16:31:04.869Z,18.56
2018-04-27T16:32:04.933Z,18.53
2018-04-27T16:33:57.923Z,18.45
2018-04-27T16:34:57.985Z,18.34
2018-04-27T16:36:50.983Z,18.20
2018-04-27T16:37:51.040Z,18.18
2018-04-27T16:39:44.060Z,18.08
2018-04-27T16:40:44.154Z,18.15
2018-04-27T16:42:37.101Z,18.15
2018-04-27T16:43:37.152Z,18.03
2018-04-27T16:45:30.145Z,18.07
2018-04-27T16:46:30.211Z,18.20
2018-04-27T16:48:23.222Z,18.22
2018-04-27T16:49:23.279Z,18.22
2018-04-27T16:51:16.274Z,18.40
2018-04-27T16:52:16.323Z,18.26
2018-04-27T16:54:09.316Z,18.29
2018-04-27T16:55:09.381Z,18.13
2018-04-27T16:57:02.385Z,18.25
2018-04-27T16:58:02.447Z,18.19
2018-04-27T16:59:55.437Z,18.05
2018-04-27T17:00:55.505Z,17.92
2018-04-27T17:02:48.501Z,17.87
2018-04-27T17:03:48.558Z,17.80
2018-04-27T17:05:41.549Z,17.82
2018-04-27T17:06:41.621Z,17.78
2018-04-27T17:08:34.610Z,17.79
2018-04-27T17:09:34.746Z,17.64
2018-04-27T17:11:27.667Z,17.63
2018-04-27T17:12:27.722Z,17.67
2018-04-27T17:14:20.720Z,17.42
2018-04-27T17:15:20.783Z,17.48
2018-04-27T17:17:13.796Z,17.38
2018-04-27T17:18:13.839Z,17.39
2018-04-27T17:20:06.838Z,17.41
2018-04-27T17:21:06.900Z,17.33
2018-04-27T17:22:59.899Z,17.27
2018-04-27T17:23:59.961Z,17.29
2018-04-27T17:25:52.947Z,17.29
2018-04-27T17:26:53.010Z,17.24
2018-04-27T17:28:46.033Z,17.22
2018-04-27T17:29:46.064Z,17.24
2018-04-27T17:31:39.064Z,17.19
2018-04-27T17:32:39.124Z,17.16
2018-04-27T17:34:32.123Z,17.24
2018-04-27T17:35:32.189Z,17.26
2018-04-27T17:37:25.187Z,17.14
2018-04-27T17:38:25.251Z,17.19
2018-04-27T17:40:18.306Z,17.09
2018-04-27T17:41:18.305Z,16.93
2018-04-27T17:43:11.304Z,17.15
2018-04-27T17:44:11.361Z,16.96
2018-04-27T17:46:04.351Z,17.06
2018-04-27T17:47:04.599Z,16.99
2018-04-27T17:48:57.405Z,16.99
2018-04-27T17:49:57.468Z,17.02
2018-04-27T17:51:50.470Z,16.89
2018-04-27T17:52:50.524Z,16.96
2018-04-27T17:54:44.025Z,16.97
2018-04-27T17:55:44.136Z,16.96
2018-04-27T17:57:37.091Z,16.91
2018-04-27T17:58:37.149Z,16.86
2018-04-27T18:00:30.146Z,16.78
2018-04-27T18:01:30.208Z,16.78
2018-04-27T18:03:23.210Z,16.69
2018-04-27T18:04:23.265Z,16.68
2018-04-27T18:06:16.265Z,16.68
2018-04-27T18:07:16.328Z,16.54
2018-04-27T18:09:09.324Z,16.50
2018-04-27T18:10:09.385Z,16.51
2018-04-27T18:12:02.507Z,16.50
2018-04-27T18:13:02.443Z,16.43
2018-04-27T18:14:55.433Z,16.47
2018-04-27T18:15:55.498Z,16.43
2018-04-27T18:17:48.628Z,16.42
2018-04-27T18:18:48.555Z,16.38
2018-04-27T18:20:41.548Z,16.26
2018-04-27T18:21:41.611Z,16.28
2018-04-27T18:23:34.624Z,16.23
2018-04-27T18:24:34.676Z,16.12
2018-04-27T18:26:27.669Z,16.20
2018-04-27T18:27:27.735Z,16.12
2018-04-27T18:29:20.726Z,16.02
2018-04-27T18:30:20.785Z,15.95
2018-04-27T18:32:13.806Z,15.91
2018-04-27T18:33:13.921Z,15.82
2018-04-27T18:35:06.840Z,15.79
2018-04-27T18:36:06.911Z,15.80
2018-04-27T18:38:00.404Z,15.68
2018-04-27T18:39:00.472Z,15.65
2018-04-27T18:40:53.453Z,15.65
2018-04-27T18:41:53.517Z,15.68
2018-04-27T18:43:46.520Z,15.59
2018-04-27T18:44:46.592Z,15.62
2018-04-27T18:46:39.580Z,15.42
2018-04-27T18:47:39.683Z,15.44